Terminal Aerodrome Forecast
Issued by NWS

Home | Current Version | Previous Version | Text Only | Print | Product List | Glossary On
Versions: 1 2 3 4 5 6 7 8 9 10 11 12 13 14 15 16 17 18
000
FTUS45 KBOU 241126
TAFBJC
TAF
KBJC 241126Z 2412/2512 VRB06KT P6SM FEW030 SCT220
     FM241600 11010KT P6SM SCT100 SCT220
     FM241800 08010KT P6SM SCT060 SCT120
     FM242000 32014G22KT P6SM VCTS SCT080CB BKN120
      TEMPO 2420/2423 VRB18G30KT -TSRA BKN080CB
     FM242300 01011KT P6SM FEW080 SCT120
     FM250300 28006KT P6SM FEW220=

USA.gov is the U.S. government's official web portal to all federal, state and local government web resources and services.